sensor_id;sensor_type;location;lat;lon;timestamp;P1;P2;P0
62547;PMS7003;48602;45.192;5.722;2022-08-18T00:02:17;5.75;5.00;4.25
62547;PMS7003;48602;45.192;5.722;2022-08-18T00:04:45;8.00;5.20;5.00
62547;PMS7003;48602;45.192;5.722;2022-08-18T00:07:12;5.50;5.00;4.25
62547;PMS7003;48602;45.192;5.722;2022-08-18T00:09:40;5.80;5.80;4.60
62547;PMS7003;48602;45.192;5.722;2022-08-18T00:12:14;4.75;4.75;4.00
62547;PMS7003;48602;45.192;5.722;2022-08-18T00:14:43;6.20;6.20;4.40
62547;PMS7003;48602;45.192;5.722;2022-08-18T00:17:09;4.40;4.40;3.60
62547;PMS7003;48602;45.192;5.722;2022-08-18T00:19:34;3.25;3.25;2.50
62547;PMS7003;48602;45.192;5.722;2022-08-18T00:22:00;5.25;3.75;3.00
62547;PMS7003;48602;45.192;5.722;2022-08-18T00:24:25;5.00;2.75;2.75
62547;PMS7003;48602;45.192;5.722;2022-08-18T00:26:51;2.75;2.50;2.50
62547;PMS7003;48602;45.192;5.722;2022-08-18T00:29:16;3.75;3.75;3.00
62547;PMS7003;48602;45.192;5.722;2022-08-18T00:31:42;4.00;3.00;2.75
62547;PMS7003;48602;45.192;5.722;2022-08-18T00:34:07;3.75;3.50;3.00
62547;PMS7003;48602;45.192;5.722;2022-08-18T00:36:32;4.50;3.00;3.00
62547;PMS7003;48602;45.192;5.722;2022-08-18T00:38:59;3.75;3.75;3.00
62547;PMS7003;48602;45.192;5.722;2022-08-18T00:41:25;4.25;3.00;3.00
62547;PMS7003;48602;45.192;5.722;2022-08-18T00:43:52;4.00;4.00;4.00
62547;PMS7003;48602;45.192;5.722;2022-08-18T00:46:24;3.00;3.00;2.00
62547;PMS7003;48602;45.192;5.722;2022-08-18T00:48:52;4.40;3.60;3.00
62547;PMS7003;48602;45.192;5.722;2022-08-18T00:51:21;2.50;2.50;2.25
62547;PMS7003;48602;45.192;5.722;2022-08-18T00:53:55;4.00;3.60;3.20
62547;PMS7003;48602;45.192;5.722;2022-08-18T00:56:27;2.80;2.40;2.40
62547;PMS7003;48602;45.192;5.722;2022-08-18T00:59:00;3.00;2.60;2.40
62547;PMS7003;48602;45.192;5.722;2022-08-18T01:01:28;1.80;1.80;1.20
62547;PMS7003;48602;45.192;5.722;2022-08-18T01:04:02;3.00;2.20;2.00
62547;PMS7003;48602;45.192;5.722;2022-08-18T01:08:58;2.75;2.75;2.00
62547;PMS7003;48602;45.192;5.722;2022-08-18T01:11:25;3.00;3.00;2.50
62547;PMS7003;48602;45.192;5.722;2022-08-18T01:13:51;3.00;2.00;1.50
62547;PMS7003;48602;45.192;5.722;2022-08-18T01:16:17;2.20;1.20;1.00
62547;PMS7003;48602;45.192;5.722;2022-08-18T01:19:02;3.80;3.20;3.00
62547;PMS7003;48602;45.192;5.722;2022-08-18T01:21:48;4.40;3.40;3.40
62547;PMS7003;48602;45.192;5.722;2022-08-18T01:24:24;3.80;2.20;2.00
62547;PMS7003;48602;45.192;5.722;2022-08-18T01:27:12;4.20;3.00;3.00
62547;PMS7003;48602;45.192;5.722;2022-08-18T01:29:41;3.00;3.00;2.60
62547;PMS7003;48602;45.192;5.722;2022-08-18T01:32:08;3.20;3.00;2.20
62547;PMS7003;48602;45.192;5.722;2022-08-18T01:34:33;2.75;2.75;2.00
62547;PMS7003;48602;45.192;5.722;2022-08-18T01:36:58;4.25;4.25;4.00
62547;PMS7003;48602;45.192;5.722;2022-08-18T01:39:24;5.00;2.75;2.75
62547;PMS7003;48602;45.192;5.722;2022-08-18T01:41:49;3.00;3.00;2.00
62547;PMS7003;48602;45.192;5.722;2022-08-18T01:44:15;3.50;3.50;3.00
62547;PMS7003;48602;45.192;5.722;2022-08-18T01:46:40;4.75;3.00;2.50
62547;PMS7003;48602;45.192;5.722;2022-08-18T01:49:06;5.00;4.50;3.50
62547;PMS7003;48602;45.192;5.722;2022-08-18T01:51:33;5.00;4.00;3.00
62547;PMS7003;48602;45.192;5.722;2022-08-18T01:54:02;4.40;4.00;3.20
62547;PMS7003;48602;45.192;5.722;2022-08-18T01:56:29;4.20;4.00;3.60
62547;PMS7003;48602;45.192;5.722;2022-08-18T01:58:55;4.00;4.00;3.00
62547;PMS7003;48602;45.192;5.722;2022-08-18T02:01:21;5.00;5.00;4.00
62547;PMS7003;48602;45.192;5.722;2022-08-18T02:03:48;4.80;3.40;3.00
62547;PMS7003;48602;45.192;5.722;2022-08-18T02:06:18;6.20;4.40;3.40
62547;PMS7003;48602;45.192;5.722;2022-08-18T02:08:44;3.00;3.00;2.00
62547;PMS7003;48602;45.192;5.722;2022-08-18T02:11:11;4.50;4.50;3.00
62547;PMS7003;48602;45.192;5.722;2022-08-18T02:13:37;3.00;3.00;3.00
62547;PMS7003;48602;45.192;5.722;2022-08-18T02:16:03;4.50;3.00;3.00
62547;PMS7003;48602;45.192;5.722;2022-08-18T02:18:30;5.40;4.40;3.20
62547;PMS7003;48602;45.192;5.722;2022-08-18T02:20:58;4.00;4.00;3.75
62547;PMS7003;48602;45.192;5.722;2022-08-18T02:23:34;4.40;3.80;3.00
62547;PMS7003;48602;45.192;5.722;2022-08-18T02:26:10;3.00;3.00;3.00
62547;PMS7003;48602;45.192;5.722;2022-08-18T02:28:38;4.00;3.60;3.00
62547;PMS7003;48602;45.192;5.722;2022-08-18T02:31:08;3.00;3.00;3.00
62547;PMS7003;48602;45.192;5.722;2022-08-18T02:33:36;4.40;4.00;3.00
62547;PMS7003;48602;45.192;5.722;2022-08-18T02:36:01;4.00;4.00;3.00
62547;PMS7003;48602;45.192;5.722;2022-08-18T02:38:28;5.00;4.00;2.40
62547;PMS7003;48602;45.192;5.722;2022-08-18T02:40:55;2.50;2.50;2.25
62547;PMS7003;48602;45.192;5.722;2022-08-18T02:43:21;5.00;4.00;3.00
62547;PMS7003;48602;45.192;5.722;2022-08-18T02:45:47;4.00;4.00;3.25
62547;PMS7003;48602;45.192;5.722;2022-08-18T02:48:12;3.00;3.00;2.00
62547;PMS7003;48602;45.192;5.722;2022-08-18T02:50:38;5.00;4.50;4.00
62547;PMS7003;48602;45.192;5.722;2022-08-18T02:53:15;3.20;3.20;3.20
62547;PMS7003;48602;45.192;5.722;2022-08-18T02:55:47;5.00;4.60;4.00
62547;PMS7003;48602;45.192;5.722;2022-08-18T02:58:12;3.00;3.00;3.00
62547;PMS7003;48602;45.192;5.722;2022-08-18T03:00:38;3.00;3.00;2.50
62547;PMS7003;48602;45.192;5.722;2022-08-18T03:03:04;4.00;3.00;2.25
62547;PMS7003;48602;45.192;5.722;2022-08-18T03:05:29;2.00;2.00;2.00
62547;PMS7003;48602;45.192;5.722;2022-08-18T03:07:55;2.50;2.50;2.50
62547;PMS7003;48602;45.192;5.722;2022-08-18T03:10:20;5.00;3.00;3.00
62547;PMS7003;48602;45.192;5.722;2022-08-18T03:12:46;3.25;2.75;1.75
62547;PMS7003;48602;45.192;5.722;2022-08-18T03:15:11;4.25;4.00;3.75
62547;PMS7003;48602;45.192;5.722;2022-08-18T03:17:37;4.75;4.00;3.00
62547;PMS7003;48602;45.192;5.722;2022-08-18T03:20:03;6.00;6.00;5.00
62547;PMS7003;48602;45.192;5.722;2022-08-18T03:22:29;5.25;5.25;5.00
62547;PMS7003;48602;45.192;5.722;2022-08-18T03:24:56;5.00;5.00;4.40
62547;PMS7003;48602;45.192;5.722;2022-08-18T03:27:22;5.80;5.80;4.00
62547;PMS7003;48602;45.192;5.722;2022-08-18T03:29:48;5.50;5.50;4.50
62547;PMS7003;48602;45.192;5.722;2022-08-18T03:32:15;6.00;5.00;4.00
62547;PMS7003;48602;45.192;5.722;2022-08-18T03:34:40;4.25;4.00;3.00
62547;PMS7003;48602;45.192;5.722;2022-08-18T03:37:07;6.75;5.00;3.25
62547;PMS7003;48602;45.192;5.722;2022-08-18T03:39:33;8.00;6.25;5.25
62547;PMS7003;48602;45.192;5.722;2022-08-18T03:41:58;4.50;4.50;4.25
62547;PMS7003;48602;45.192;5.722;2022-08-18T03:44:24;4.25;3.00;3.00
62547;PMS7003;48602;45.192;5.722;2022-08-18T03:46:51;4.60;4.60;3.00
62547;PMS7003;48602;45.192;5.722;2022-08-18T03:49:17;7.75;4.25;3.25
62547;PMS7003;48602;45.192;5.722;2022-08-18T03:51:44;2.60;2.60;2.00
62547;PMS7003;48602;45.192;5.722;2022-08-18T03:54:16;2.00;2.00;2.00
62547;PMS7003;48602;45.192;5.722;2022-08-18T03:56:43;2.60;2.20;2.00
62547;PMS7003;48602;45.192;5.722;2022-08-18T03:59:14;4.00;3.75;3.00
62547;PMS7003;48602;45.192;5.722;2022-08-18T04:01:42;2.00;2.00;2.00
62547;PMS7003;48602;45.192;5.722;2022-08-18T04:04:09;3.60;2.00;2.00
62547;PMS7003;48602;45.192;5.722;2022-08-18T04:06:43;3.20;3.20;2.80
62547;PMS7003;48602;45.192;5.722;2022-08-18T04:09:21;3.00;3.00;2.25
62547;PMS7003;48602;45.192;5.722;2022-08-18T04:11:51;4.00;3.20;3.00
62547;PMS7003;48602;45.192;5.722;2022-08-18T04:14:19;3.20;3.00;2.80
62547;PMS7003;48602;45.192;5.722;2022-08-18T04:16:48;4.00;3.40;2.00
62547;PMS7003;48602;45.192;5.722;2022-08-18T04:19:14;4.50;3.00;2.75
62547;PMS7003;48602;45.192;5.722;2022-08-18T04:21:42;3.40;3.00;2.40
62547;PMS7003;48602;45.192;5.722;2022-08-18T04:24:09;4.80;3.40;3.00
62547;PMS7003;48602;45.192;5.722;2022-08-18T04:26:37;2.20;2.20;2.20
62547;PMS7003;48602;45.192;5.722;2022-08-18T04:29:05;3.00;3.00;2.40
62547;PMS7003;48602;45.192;5.722;2022-08-18T04:31:31;4.60;4.60;4.00
62547;PMS7003;48602;45.192;5.722;2022-08-18T04:33:58;3.75;3.50;3.00
62547;PMS7003;48602;45.192;5.722;2022-08-18T04:36:25;4.20;4.20;3.80
62547;PMS7003;48602;45.192;5.722;2022-08-18T04:38:51;7.00;6.00;5.25
62547;PMS7003;48602;45.192;5.722;2022-08-18T04:41:17;10.00;6.00;5.50
62547;PMS7003;48602;45.192;5.722;2022-08-18T04:43:43;7.80;6.00;5.00
62547;PMS7003;48602;45.192;5.722;2022-08-18T04:46:09;6.50;6.50;4.00
62547;PMS7003;48602;45.192;5.722;2022-08-18T04:48:39;3.50;3.50;3.00
62547;PMS7003;48602;45.192;5.722;2022-08-18T04:51:10;5.00;5.00;4.00
62547;PMS7003;48602;45.192;5.722;2022-08-18T04:53:40;5.40;5.20;4.00
62547;PMS7003;48602;45.192;5.722;2022-08-18T04:56:17;4.40;3.60;2.80
62547;PMS7003;48602;45.192;5.722;2022-08-18T04:58:52;3.00;3.00;2.00
62547;PMS7003;48602;45.192;5.722;2022-08-18T05:01:19;5.40;4.00;3.00
62547;PMS7003;48602;45.192;5.722;2022-08-18T05:03:49;2.20;2.20;2.00
62547;PMS7003;48602;45.192;5.722;2022-08-18T05:06:16;3.00;3.00;2.40
62547;PMS7003;48602;45.192;5.722;2022-08-18T05:08:42;4.25;3.00;2.50
62547;PMS7003;48602;45.192;5.722;2022-08-18T05:11:08;6.75;6.25;4.25
62547;PMS7003;48602;45.192;5.722;2022-08-18T05:13:34;12.00;12.00;8.50
62547;PMS7003;48602;45.192;5.722;2022-08-18T05:16:00;5.00;5.00;5.00
62547;PMS7003;48602;45.192;5.722;2022-08-18T05:18:31;5.00;5.00;4.00
62547;PMS7003;48602;45.192;5.722;2022-08-18T05:21:02;10.60;8.80;7.40
62547;PMS7003;48602;45.192;5.722;2022-08-18T05:23:28;7.40;7.00;5.40
62547;PMS7003;48602;45.192;5.722;2022-08-18T05:25:58;7.50;6.75;5.50
62547;PMS7003;48602;45.192;5.722;2022-08-18T05:28:24;8.00;8.00;6.25
62547;PMS7003;48602;45.192;5.722;2022-08-18T05:30:50;6.00;5.80;5.00
62547;PMS7003;48602;45.192;5.722;2022-08-18T05:33:16;7.75;7.75;6.00
62547;PMS7003;48602;45.192;5.722;2022-08-18T05:35:46;9.50;7.75;6.00
62547;PMS7003;48602;45.192;5.722;2022-08-18T05:41:10;5.20;5.00;4.00
62547;PMS7003;48602;45.192;5.722;2022-08-18T05:43:38;4.40;4.00;3.40
62547;PMS7003;48602;45.192;5.722;2022-08-18T05:46:07;6.80;6.40;5.40
62547;PMS7003;48602;45.192;5.722;2022-08-18T05:48:34;5.50;5.00;4.00
62547;PMS7003;48602;45.192;5.722;2022-08-18T05:51:02;6.50;5.00;5.00
62547;PMS7003;48602;45.192;5.722;2022-08-18T05:53:44;4.00;4.00;3.80
62547;PMS7003;48602;45.192;5.722;2022-08-18T05:56:32;7.00;5.00;4.40
62547;PMS7003;48602;45.192;5.722;2022-08-18T05:59:17;5.60;4.60;3.80
62547;PMS7003;48602;45.192;5.722;2022-08-18T06:01:47;6.00;5.20;4.60
62547;PMS7003;48602;45.192;5.722;2022-08-18T06:04:23;6.20;5.40;5.00
62547;PMS7003;48602;45.192;5.722;2022-08-18T06:06:50;7.25;7.25;6.50
62547;PMS7003;48602;45.192;5.722;2022-08-18T06:09:20;6.00;5.50;5.25
62547;PMS7003;48602;45.192;5.722;2022-08-18T06:11:54;10.50;9.75;7.00
62547;PMS7003;48602;45.192;5.722;2022-08-18T06:14:29;9.80;9.80;7.80
62547;PMS7003;48602;45.192;5.722;2022-08-18T06:22:49;13.75;13.25;10.00
62547;PMS7003;48602;45.192;5.722;2022-08-18T06:25:29;15.20;13.40;10.00
62547;PMS7003;48602;45.192;5.722;2022-08-18T06:28:13;15.75;13.00;9.25
62547;PMS7003;48602;45.192;5.722;2022-08-18T06:35:35;8.60;8.40;7.00
62547;PMS7003;48602;45.192;5.722;2022-08-18T06:41:14;6.50;6.50;6.00
62547;PMS7003;48602;45.192;5.722;2022-08-18T06:43:52;8.00;7.75;5.25
62547;PMS7003;48602;45.192;5.722;2022-08-18T06:46:27;6.00;6.00;5.20
62547;PMS7003;48602;45.192;5.722;2022-08-18T06:49:20;7.40;5.60;4.40
62547;PMS7003;48602;45.192;5.722;2022-08-18T06:51:51;5.75;5.75;5.00
62547;PMS7003;48602;45.192;5.722;2022-08-18T06:59:15;4.40;4.40;3.60
62547;PMS7003;48602;45.192;5.722;2022-08-18T07:01:44;6.50;6.50;4.75
62547;PMS7003;48602;45.192;5.722;2022-08-18T07:04:29;24.50;24.50;16.75
62547;PMS7003;48602;45.192;5.722;2022-08-18T07:09:55;5.80;5.80;5.40
62547;PMS7003;48602;45.192;5.722;2022-08-18T07:12:22;8.75;8.75;7.00
62547;PMS7003;48602;45.192;5.722;2022-08-18T07:14:54;9.20;6.00;4.80
62547;PMS7003;48602;45.192;5.722;2022-08-18T07:17:27;8.80;7.40;5.40
62547;PMS7003;48602;45.192;5.722;2022-08-18T07:19:55;8.60;8.00;6.00
62547;PMS7003;48602;45.192;5.722;2022-08-18T07:22:50;7.00;5.75;5.00
62547;PMS7003;48602;45.192;5.722;2022-08-18T07:25:21;10.00;7.00;6.00
62547;PMS7003;48602;45.192;5.722;2022-08-18T07:27:49;6.00;6.00;5.20
62547;PMS7003;48602;45.192;5.722;2022-08-18T07:35:12;6.40;6.40;5.20
62547;PMS7003;48602;45.192;5.722;2022-08-18T07:37:52;7.40;7.20;7.00
62547;PMS7003;48602;45.192;5.722;2022-08-18T07:42:57;11.00;9.20;7.00
62547;PMS7003;48602;45.192;5.722;2022-08-18T07:48:39;6.00;6.00;5.00
62547;PMS7003;48602;45.192;5.722;2022-08-18T07:53:45;6.25;6.25;5.25
62547;PMS7003;48602;45.192;5.722;2022-08-18T07:56:26;8.40;6.60;5.40
62547;PMS7003;48602;45.192;5.722;2022-08-18T07:59:05;5.00;5.00;4.20
62547;PMS7003;48602;45.192;5.722;2022-08-18T08:01:36;6.60;5.40;4.20
62547;PMS7003;48602;45.192;5.722;2022-08-18T08:07:02;7.00;7.00;6.00
62547;PMS7003;48602;45.192;5.722;2022-08-18T08:17:39;5.00;4.75;4.00
62547;PMS7003;48602;45.192;5.722;2022-08-18T08:28:41;8.20;7.00;6.00
62547;PMS7003;48602;45.192;5.722;2022-08-18T08:34:08;6.60;5.40;5.00
62547;PMS7003;48602;45.192;5.722;2022-08-18T08:36:40;5.00;5.00;4.00
62547;PMS7003;48602;45.192;5.722;2022-08-18T08:39:51;6.60;6.20;5.40
62547;PMS7003;48602;45.192;5.722;2022-08-18T08:42:05;5.80;5.80;5.00
62547;PMS7003;48602;45.192;5.722;2022-08-18T08:44:58;5.00;4.40;4.00
62547;PMS7003;48602;45.192;5.722;2022-08-18T08:47:29;4.60;4.60;3.80
62547;PMS7003;48602;45.192;5.722;2022-08-18T08:50:06;4.80;4.80;4.00
62547;PMS7003;48602;45.192;5.722;2022-08-18T08:52:41;5.40;5.40;4.80
62547;PMS7003;48602;45.192;5.722;2022-08-18T08:55:17;5.20;5.20;5.00
62547;PMS7003;48602;45.192;5.722;2022-08-18T08:57:51;5.40;5.40;5.20
62547;PMS7003;48602;45.192;5.722;2022-08-18T09:00:18;7.40;7.00;5.40
62547;PMS7003;48602;45.192;5.722;2022-08-18T09:05:23;7.60;5.80;4.80
62547;PMS7003;48602;45.192;5.722;2022-08-18T09:24:43;4.40;4.40;4.20
62547;PMS7003;48602;45.192;5.722;2022-08-18T09:27:22;5.00;4.80;3.80
62547;PMS7003;48602;45.192;5.722;2022-08-18T09:30:36;5.60;4.40;3.80
62547;PMS7003;48602;45.192;5.722;2022-08-18T09:35:45;5.00;5.00;4.20
62547;PMS7003;48602;45.192;5.722;2022-08-18T09:38:45;6.40;6.40;5.20
62547;PMS7003;48602;45.192;5.722;2022-08-18T09:41:36;6.20;5.80;5.00
62547;PMS7003;48602;45.192;5.722;2022-08-18T09:44:12;7.00;6.00;4.60
62547;PMS7003;48602;45.192;5.722;2022-08-18T09:46:59;5.80;5.40;4.80
62547;PMS7003;48602;45.192;5.722;2022-08-18T09:51:51;5.25;5.00;4.50
62547;PMS7003;48602;45.192;5.722;2022-08-18T09:54:18;6.40;6.40;5.40
62547;PMS7003;48602;45.192;5.722;2022-08-18T09:59:29;6.00;5.60;5.00
62547;PMS7003;48602;45.192;5.722;2022-08-18T10:01:59;6.00;6.00;5.40
62547;PMS7003;48602;45.192;5.722;2022-08-18T10:26:05;6.00;6.00;5.20
62547;PMS7003;48602;45.192;5.722;2022-08-18T10:31:23;5.00;4.00;3.00
62547;PMS7003;48602;45.192;5.722;2022-08-18T10:39:26;5.80;5.80;4.80
62547;PMS7003;48602;45.192;5.722;2022-08-18T10:44:47;7.20;5.60;5.00
62547;PMS7003;48602;45.192;5.722;2022-08-18T10:47:21;4.60;4.60;4.40
62547;PMS7003;48602;45.192;5.722;2022-08-18T10:49:48;9.40;7.20;6.00
62547;PMS7003;48602;45.192;5.722;2022-08-18T11:00:17;5.80;5.20;4.40
62547;PMS7003;48602;45.192;5.722;2022-08-18T11:02:49;6.00;6.00;5.20
62547;PMS7003;48602;45.192;5.722;2022-08-18T11:05:25;8.25;7.75;7.00
62547;PMS7003;48602;45.192;5.722;2022-08-18T11:07:58;5.80;4.80;4.40
62547;PMS7003;48602;45.192;5.722;2022-08-18T11:10:35;8.40;6.60;5.40
62547;PMS7003;48602;45.192;5.722;2022-08-18T11:19:14;7.20;6.80;6.20
62547;PMS7003;48602;45.192;5.722;2022-08-18T11:21:43;9.00;9.00;6.80
62547;PMS7003;48602;45.192;5.722;2022-08-18T11:26:58;6.20;5.80;5.00
62547;PMS7003;48602;45.192;5.722;2022-08-18T11:32:00;8.80;6.60;5.40
62547;PMS7003;48602;45.192;5.722;2022-08-18T11:34:38;6.00;6.00;5.00
62547;PMS7003;48602;45.192;5.722;2022-08-18T11:37:12;7.00;6.40;6.00
62547;PMS7003;48602;45.192;5.722;2022-08-18T11:39:51;6.80;6.00;5.00
62547;PMS7003;48602;45.192;5.722;2022-08-18T11:42:25;6.60;5.40;5.00
62547;PMS7003;48602;45.192;5.722;2022-08-18T11:47:36;5.60;4.80;3.80
62547;PMS7003;48602;45.192;5.722;2022-08-18T11:50:11;9.40;7.80;5.80
62547;PMS7003;48602;45.192;5.722;2022-08-18T11:52:48;7.00;7.00;7.00
62547;PMS7003;48602;45.192;5.722;2022-08-18T11:55:27;6.00;6.00;5.80
62547;PMS7003;48602;45.192;5.722;2022-08-18T11:57:56;7.00;7.00;6.00
62547;PMS7003;48602;45.192;5.722;2022-08-18T12:05:55;7.00;7.00;6.40
62547;PMS7003;48602;45.192;5.722;2022-08-18T12:08:36;4.80;4.80;4.40
62547;PMS7003;48602;45.192;5.722;2022-08-18T12:11:15;6.60;6.60;5.80
62547;PMS7003;48602;45.192;5.722;2022-08-18T12:13:45;6.40;6.40;5.80
62547;PMS7003;48602;45.192;5.722;2022-08-18T12:16:15;9.60;7.20;6.20
62547;PMS7003;48602;45.192;5.722;2022-08-18T12:18:55;9.50;9.25;8.00
62547;PMS7003;48602;45.192;5.722;2022-08-18T12:21:20;8.00;8.00;7.00
62547;PMS7003;48602;45.192;5.722;2022-08-18T12:23:46;10.75;9.00;7.00
62547;PMS7003;48602;45.192;5.722;2022-08-18T12:26:12;10.40;9.60;8.60
62547;PMS7003;48602;45.192;5.722;2022-08-18T12:28:37;10.75;10.00;8.25
62547;PMS7003;48602;45.192;5.722;2022-08-18T12:31:03;11.50;10.50;9.75
62547;PMS7003;48602;45.192;5.722;2022-08-18T12:33:29;6.80;6.80;6.20
62547;PMS7003;48602;45.192;5.722;2022-08-18T12:35:55;9.75;8.00;7.00
62547;PMS7003;48602;45.192;5.722;2022-08-18T12:38:21;11.25;11.25;8.50
62547;PMS7003;48602;45.192;5.722;2022-08-18T12:40:47;9.20;9.20;7.60
62547;PMS7003;48602;45.192;5.722;2022-08-18T12:43:13;6.50;5.25;3.25
62547;PMS7003;48602;45.192;5.722;2022-08-18T12:45:38;11.00;8.00;7.75
62547;PMS7003;48602;45.192;5.722;2022-08-18T12:48:04;4.20;4.20;2.80
62547;PMS7003;48602;45.192;5.722;2022-08-18T12:50:31;9.40;7.60;6.00
62547;PMS7003;48602;45.192;5.722;2022-08-18T12:52:56;6.00;6.00;5.40
62547;PMS7003;48602;45.192;5.722;2022-08-18T12:55:22;5.50;4.00;4.00
62547;PMS7003;48602;45.192;5.722;2022-08-18T12:57:47;8.50;8.50;6.75
62547;PMS7003;48602;45.192;5.722;2022-08-18T13:00:13;10.00;9.00;7.25
62547;PMS7003;48602;45.192;5.722;2022-08-18T13:02:39;7.75;7.75;6.75
62547;PMS7003;48602;45.192;5.722;2022-08-18T13:05:04;9.25;9.25;8.00
62547;PMS7003;48602;45.192;5.722;2022-08-18T13:07:30;6.50;6.50;6.00
62547;PMS7003;48602;45.192;5.722;2022-08-18T13:09:56;9.00;9.00;8.00
62547;PMS7003;48602;45.192;5.722;2022-08-18T13:12:21;8.00;7.50;6.75
62547;PMS7003;48602;45.192;5.722;2022-08-18T13:14:49;6.00;6.00;5.60
62547;PMS7003;48602;45.192;5.722;2022-08-18T13:17:18;11.50;11.50;9.25
62547;PMS7003;48602;45.192;5.722;2022-08-18T13:19:44;10.40;9.40;7.20
62547;PMS7003;48602;45.192;5.722;2022-08-18T13:22:10;7.75;7.75;6.25
62547;PMS7003;48602;45.192;5.722;2022-08-18T13:24:36;9.50;8.50;6.75
62547;PMS7003;48602;45.192;5.722;2022-08-18T13:27:02;9.50;9.50;7.75
62547;PMS7003;48602;45.192;5.722;2022-08-18T13:29:27;9.00;9.00;8.00
62547;PMS7003;48602;45.192;5.722;2022-08-18T13:31:53;10.25;8.00;6.25
62547;PMS7003;48602;45.192;5.722;2022-08-18T13:34:23;8.00;8.00;6.40
62547;PMS7003;48602;45.192;5.722;2022-08-18T13:36:51;8.75;8.50;6.50
62547;PMS7003;48602;45.192;5.722;2022-08-18T13:39:17;6.00;6.00;5.25
62547;PMS7003;48602;45.192;5.722;2022-08-18T13:41:45;10.00;9.00;7.40
62547;PMS7003;48602;45.192;5.722;2022-08-18T13:44:13;7.40;7.40;6.60
62547;PMS7003;48602;45.192;5.722;2022-08-18T13:46:41;14.25;13.00;9.25
62547;PMS7003;48602;45.192;5.722;2022-08-18T13:49:10;7.20;7.20;6.60
62547;PMS7003;48602;45.192;5.722;2022-08-18T13:51:46;7.60;7.60;6.40
62547;PMS7003;48602;45.192;5.722;2022-08-18T13:54:20;8.80;8.60;7.80
62547;PMS7003;48602;45.192;5.722;2022-08-18T13:56:47;7.00;7.00;6.80
62547;PMS7003;48602;45.192;5.722;2022-08-18T13:59:13;9.80;9.40;8.20
62547;PMS7003;48602;45.192;5.722;2022-08-18T14:01:43;9.60;9.60;8.60
62547;PMS7003;48602;45.192;5.722;2022-08-18T14:04:09;4.75;4.75;4.00
62547;PMS7003;48602;45.192;5.722;2022-08-18T14:06:36;11.00;9.20;7.80
62547;PMS7003;48602;45.192;5.722;2022-08-18T14:09:02;8.40;7.60;7.20
62547;PMS7003;48602;45.192;5.722;2022-08-18T14:11:29;8.80;8.40;7.20
62547;PMS7003;48602;45.192;5.722;2022-08-18T14:13:56;10.80;9.00;8.00
62547;PMS7003;48602;45.192;5.722;2022-08-18T14:16:22;7.00;7.00;6.00
62547;PMS7003;48602;45.192;5.722;2022-08-18T14:18:49;9.60;8.80;6.80
62547;PMS7003;48602;45.192;5.722;2022-08-18T14:21:34;8.80;8.80;7.00
62547;PMS7003;48602;45.192;5.722;2022-08-18T14:24:22;9.60;8.80;7.00
62547;PMS7003;48602;45.192;5.722;2022-08-18T14:27:06;7.25;7.25;5.25
62547;PMS7003;48602;45.192;5.722;2022-08-18T14:29:31;10.75;9.50;8.50
62547;PMS7003;48602;45.192;5.722;2022-08-18T14:31:56;9.25;9.00;7.00
62547;PMS7003;48602;45.192;5.722;2022-08-18T14:34:22;9.75;9.00;7.50
62547;PMS7003;48602;45.192;5.722;2022-08-18T14:36:47;10.50;9.75;8.00
62547;PMS7003;48602;45.192;5.722;2022-08-18T14:39:13;7.00;7.00;5.25
62547;PMS7003;48602;45.192;5.722;2022-08-18T14:41:39;9.25;8.00;7.00
62547;PMS7003;48602;45.192;5.722;2022-08-18T14:44:04;5.00;5.00;5.00
62547;PMS7003;48602;45.192;5.722;2022-08-18T14:46:30;8.25;8.25;7.25
62547;PMS7003;48602;45.192;5.722;2022-08-18T14:48:56;9.00;9.00;7.25
62547;PMS7003;48602;45.192;5.722;2022-08-18T14:51:21;8.25;7.25;6.00
62547;PMS7003;48602;45.192;5.722;2022-08-18T14:53:50;7.50;7.50;6.75
62547;PMS7003;48602;45.192;5.722;2022-08-18T14:56:16;6.50;5.75;4.75
62547;PMS7003;48602;45.192;5.722;2022-08-18T14:58:41;6.00;6.00;5.50
62547;PMS7003;48602;45.192;5.722;2022-08-18T15:01:07;8.00;7.50;6.75
62547;PMS7003;48602;45.192;5.722;2022-08-18T15:03:35;9.20;8.40;7.40
62547;PMS7003;48602;45.192;5.722;2022-08-18T15:06:02;9.00;9.00;8.25
62547;PMS7003;48602;45.192;5.722;2022-08-18T15:08:29;7.60;7.60;6.60
62547;PMS7003;48602;45.192;5.722;2022-08-18T15:10:55;8.25;8.25;7.75
62547;PMS7003;48602;45.192;5.722;2022-08-18T15:13:21;9.40;8.00;7.00
62547;PMS7003;48602;45.192;5.722;2022-08-18T15:15:48;8.00;7.00;6.75
62547;PMS7003;48602;45.192;5.722;2022-08-18T15:18:13;9.00;8.50;8.00
62547;PMS7003;48602;45.192;5.722;2022-08-18T15:20:39;4.75;2.75;2.75
62547;PMS7003;48602;45.192;5.722;2022-08-18T15:23:24;7.40;7.40;6.40
62547;PMS7003;48602;45.192;5.722;2022-08-18T15:26:08;7.40;7.40;7.00
62547;PMS7003;48602;45.192;5.722;2022-08-18T15:28:35;6.00;6.00;5.40
62547;PMS7003;48602;45.192;5.722;2022-08-18T15:31:02;9.80;9.60;8.60
62547;PMS7003;48602;45.192;5.722;2022-08-18T15:33:27;8.50;8.50;7.50
62547;PMS7003;48602;45.192;5.722;2022-08-18T15:35:53;10.50;9.00;7.25
62547;PMS7003;48602;45.192;5.722;2022-08-18T15:38:20;3.80;3.00;2.80
62547;PMS7003;48602;45.192;5.722;2022-08-18T15:40:49;9.60;9.60;8.60
62547;PMS7003;48602;45.192;5.722;2022-08-18T15:43:17;8.00;7.40;6.60
62547;PMS7003;48602;45.192;5.722;2022-08-18T15:45:43;10.00;9.50;7.50
62547;PMS7003;48602;45.192;5.722;2022-08-18T15:48:12;7.60;6.80;6.60
62547;PMS7003;48602;45.192;5.722;2022-08-18T15:50:39;5.80;5.80;4.60
62547;PMS7003;48602;45.192;5.722;2022-08-18T15:53:06;8.00;8.00;7.00
62547;PMS7003;48602;45.192;5.722;2022-08-18T15:55:32;8.00;7.75;6.75
62547;PMS7003;48602;45.192;5.722;2022-08-18T15:57:59;7.60;7.20;6.60
62547;PMS7003;48602;45.192;5.722;2022-08-18T16:00:26;7.00;7.00;6.00
62547;PMS7003;48602;45.192;5.722;2022-08-18T16:02:55;5.80;5.00;4.60
62547;PMS7003;48602;45.192;5.722;2022-08-18T16:05:22;7.75;7.75;6.75
62547;PMS7003;48602;45.192;5.722;2022-08-18T16:07:51;9.40;8.00;6.20
62547;PMS7003;48602;45.192;5.722;2022-08-18T16:10:18;9.40;7.80;6.20
62547;PMS7003;48602;45.192;5.722;2022-08-18T16:12:45;9.00;8.20;7.60
62547;PMS7003;48602;45.192;5.722;2022-08-18T16:15:12;7.00;7.00;5.75
62547;PMS7003;48602;45.192;5.722;2022-08-18T16:17:39;8.80;8.80;7.20
62547;PMS7003;48602;45.192;5.722;2022-08-18T16:20:05;8.25;8.25;7.25
62547;PMS7003;48602;45.192;5.722;2022-08-18T16:22:32;7.00;6.80;6.80
62547;PMS7003;48602;45.192;5.722;2022-08-18T16:24:59;5.75;5.75;5.00
62547;PMS7003;48602;45.192;5.722;2022-08-18T16:27:26;9.60;8.80;7.40
62547;PMS7003;48602;45.192;5.722;2022-08-18T16:29:53;8.20;7.60;7.00
62547;PMS7003;48602;45.192;5.722;2022-08-18T16:32:19;7.40;5.60;4.80
62547;PMS7003;48602;45.192;5.722;2022-08-18T16:34:45;11.00;10.00;8.00
62547;PMS7003;48602;45.192;5.722;2022-08-18T16:37:10;7.75;7.25;6.75
62547;PMS7003;48602;45.192;5.722;2022-08-18T16:39:35;8.25;7.75;6.00
62547;PMS7003;48602;45.192;5.722;2022-08-18T16:42:01;5.75;5.75;5.25
62547;PMS7003;48602;45.192;5.722;2022-08-18T16:44:28;9.00;8.00;6.60
62547;PMS7003;48602;45.192;5.722;2022-08-18T16:46:56;8.00;8.00;8.00
62547;PMS7003;48602;45.192;5.722;2022-08-18T16:49:22;7.25;7.25;6.00
62547;PMS7003;48602;45.192;5.722;2022-08-18T16:51:47;6.50;6.25;5.00
62547;PMS7003;48602;45.192;5.722;2022-08-18T16:54:12;5.50;5.50;4.50
62547;PMS7003;48602;45.192;5.722;2022-08-18T16:56:40;4.40;4.40;3.20
62547;PMS7003;48602;45.192;5.722;2022-08-18T16:59:05;7.00;7.00;6.00
62547;PMS7003;48602;45.192;5.722;2022-08-18T17:01:49;8.00;8.00;7.00
62547;PMS7003;48602;45.192;5.722;2022-08-18T17:04:33;6.40;6.20;5.60
62547;PMS7003;48602;45.192;5.722;2022-08-18T17:06:58;6.00;5.25;5.00